createdAt,value
2023-02-19T00:01:45.969Z,3.20
2023-02-19T00:04:14.297Z,4.20
2023-02-19T00:06:42.003Z,2.70
2023-02-19T00:09:13.750Z,3.60
2023-02-19T00:11:41.371Z,3.40
2023-02-19T00:14:08.698Z,3.90
2023-02-19T00:16:40.197Z,3.60
2023-02-19T00:19:09.241Z,5.20
2023-02-19T00:21:35.707Z,4.10
2023-02-19T00:24:05.389Z,2.90
2023-02-19T00:26:32.912Z,2.10
2023-02-19T00:29:00.717Z,1.90
2023-02-19T00:31:32.524Z,2.90
2023-02-19T00:34:02.230Z,3.00
2023-02-19T00:36:29.564Z,4.00
2023-02-19T00:38:56.404Z,3.40
2023-02-19T00:41:24.141Z,3.70
2023-02-19T00:44:02.148Z,2.60
2023-02-19T00:46:31.846Z,3.30
2023-02-19T00:48:59.181Z,4.60
2023-02-19T00:51:31.643Z,3.00
2023-02-19T00:53:59.011Z,4.40
2023-02-19T00:56:25.740Z,4.50
2023-02-19T00:58:52.795Z,3.90
2023-02-19T01:01:20.326Z,4.50
2023-02-19T01:03:48.240Z,4.90
2023-02-19T01:06:18.247Z,4.30
2023-02-19T01:08:45.433Z,4.10
2023-02-19T01:11:13.458Z,3.30
2023-02-19T01:13:42.086Z,3.40
2023-02-19T01:16:18.831Z,3.20
2023-02-19T01:18:46.324Z,3.60
2023-02-19T01:21:19.565Z,2.60
2023-02-19T01:23:47.106Z,3.30
2023-02-19T01:26:19.574Z,3.60
2023-02-19T01:28:47.166Z,3.00
2023-02-19T01:31:17.822Z,2.80
2023-02-19T01:33:46.454Z,3.10
2023-02-19T01:36:13.609Z,2.10
2023-02-19T01:38:42.737Z,3.30
2023-02-19T01:41:12.473Z,1.60
2023-02-19T01:44:00.270Z,2.30
2023-02-19T01:46:29.179Z,3.10
2023-02-19T01:49:10.039Z,3.60
2023-02-19T01:51:41.378Z,2.70
2023-02-19T01:56:41.069Z,2.10
2023-02-19T01:59:07.793Z,1.50
2023-02-19T02:01:35.869Z,1.70
2023-02-19T02:04:03.840Z,1.60
2023-02-19T02:06:34.398Z,2.60
2023-02-19T02:09:01.513Z,2.10
2023-02-19T02:11:29.190Z,2.40
2023-02-19T02:13:57.142Z,1.60
2023-02-19T02:16:39.167Z,1.40
2023-02-19T02:19:40.357Z,2.00
2023-02-19T02:22:42.493Z,1.40
2023-02-19T02:25:46.195Z,1.80
2023-02-19T02:28:51.458Z,2.90
2023-02-19T02:31:23.119Z,1.60
2023-02-19T02:34:12.568Z,2.30
2023-02-19T02:36:45.710Z,3.70
2023-02-19T02:39:17.308Z,2.80
2023-02-19T02:41:49.186Z,1.60
2023-02-19T02:44:16.284Z,2.40
2023-02-19T02:46:45.383Z,2.40
2023-02-19T02:49:21.158Z,1.40
2023-02-19T02:51:52.526Z,2.50
2023-02-19T02:56:59.996Z,2.30
2023-02-19T02:59:31.756Z,1.90
2023-02-19T03:02:09.456Z,2.00
2023-02-19T03:04:44.325Z,2.90
2023-02-19T03:07:12.162Z,1.80
2023-02-19T03:09:43.019Z,1.20
2023-02-19T03:12:17.767Z,2.00
2023-02-19T03:14:48.910Z,1.80
2023-02-19T03:17:33.444Z,1.70
2023-02-19T03:20:03.121Z,2.30
2023-02-19T03:22:33.908Z,2.50
2023-02-19T03:25:14.255Z,2.10
2023-02-19T03:27:44.681Z,1.60
2023-02-19T03:30:25.715Z,1.30
2023-02-19T03:32:58.105Z,1.70
2023-02-19T03:35:30.152Z,2.20
2023-02-19T03:38:19.841Z,3.70
2023-02-19T03:41:25.323Z,0.90
2023-02-19T03:44:14.665Z,1.00
2023-02-19T03:46:59.946Z,3.50
2023-02-19T03:49:44.405Z,7.10
2023-02-19T03:52:38.335Z,5.50
2023-02-19T03:55:18.081Z,4.10
2023-02-19T03:58:05.146Z,4.90
2023-02-19T04:00:41.384Z,6.50
2023-02-19T04:03:33.454Z,7.40
2023-02-19T04:06:03.717Z,6.00
2023-02-19T04:08:34.227Z,9.10
2023-02-19T04:11:00.796Z,7.00
2023-02-19T04:13:32.785Z,9.70
2023-02-19T04:16:06.795Z,9.80
2023-02-19T04:18:38.880Z,9.10
2023-02-19T04:21:07.620Z,5.70
2023-02-19T04:23:39.577Z,6.20
2023-02-19T04:26:07.048Z,2.80
2023-02-19T04:28:35.117Z,1.80
2023-02-19T04:31:02.408Z,1.80
2023-02-19T04:33:29.191Z,4.90
2023-02-19T04:35:55.763Z,3.00
2023-02-19T04:38:22.623Z,3.10
2023-02-19T04:40:49.109Z,3.70
2023-02-19T04:43:15.522Z,4.20
2023-02-19T04:45:42.018Z,3.70
2023-02-19T04:48:09.069Z,3.30
2023-02-19T04:50:39.160Z,6.10
2023-02-19T04:53:06.650Z,7.50
2023-02-19T04:55:37.174Z,5.90
2023-02-19T04:58:03.642Z,6.90
2023-02-19T05:00:30.791Z,5.40
2023-02-19T05:02:57.338Z,6.60
2023-02-19T05:05:23.941Z,6.00
2023-02-19T05:07:50.459Z,5.00
2023-02-19T05:10:17.274Z,4.00
2023-02-19T05:12:43.889Z,10.30
2023-02-19T05:15:10.437Z,4.70
2023-02-19T05:17:36.997Z,3.30
2023-02-19T05:20:03.844Z,3.90
2023-02-19T05:22:30.900Z,3.60
2023-02-19T05:24:57.438Z,6.00
2023-02-19T05:27:25.738Z,4.70
2023-02-19T05:29:52.279Z,3.50
2023-02-19T05:32:18.845Z,3.80
2023-02-19T05:34:45.271Z,3.40
2023-02-19T05:37:11.895Z,4.60
2023-02-19T05:39:38.635Z,8.20
2023-02-19T05:42:05.274Z,9.80
2023-02-19T05:44:31.769Z,10.80
2023-02-19T05:46:58.252Z,14.40
2023-02-19T05:49:24.804Z,14.40
2023-02-19T05:51:51.652Z,14.20
2023-02-19T05:54:18.195Z,14.90
2023-02-19T05:56:44.742Z,12.70
2023-02-19T05:59:17.620Z,14.00
2023-02-19T06:01:44.469Z,12.10
2023-02-19T06:04:11.884Z,11.70
2023-02-19T06:06:39.171Z,11.60
2023-02-19T06:09:07.098Z,13.80
2023-02-19T06:11:34.611Z,11.60
2023-02-19T06:14:01.372Z,15.70
2023-02-19T06:16:28.617Z,17.60
2023-02-19T06:18:55.338Z,21.60
2023-02-19T06:21:22.161Z,20.30
2023-02-19T06:23:48.762Z,18.30
2023-02-19T06:26:18.024Z,21.00
2023-02-19T06:28:46.143Z,17.80
2023-02-19T06:31:13.589Z,18.60
2023-02-19T06:33:41.699Z,9.00
2023-02-19T06:36:12.436Z,10.10
2023-02-19T06:38:38.957Z,8.60
2023-02-19T06:41:07.028Z,11.30
2023-02-19T06:43:34.734Z,15.10
2023-02-19T06:46:03.828Z,15.80
2023-02-19T06:48:31.903Z,14.90
2023-02-19T06:50:58.606Z,17.70
2023-02-19T06:53:25.401Z,17.60
2023-02-19T06:56:00.260Z,18.00
2023-02-19T06:58:27.718Z,20.80
2023-02-19T07:00:54.820Z,23.60
2023-02-19T07:03:21.778Z,34.40
2023-02-19T07:05:48.927Z,31.30
2023-02-19T07:08:15.712Z,29.80
2023-02-19T07:10:42.236Z,31.30
2023-02-19T07:13:08.973Z,30.40
2023-02-19T07:15:35.498Z,23.70
2023-02-19T07:18:03.838Z,17.80
2023-02-19T07:20:30.488Z,19.70
2023-02-19T07:22:57.705Z,17.80
2023-02-19T07:25:24.159Z,18.00
2023-02-19T07:27:50.619Z,17.60
2023-02-19T07:30:17.263Z,17.50
2023-02-19T07:32:43.890Z,37.30
2023-02-19T07:35:10.414Z,76.50
2023-02-19T07:37:36.892Z,20.80
2023-02-19T07:40:04.226Z,18.50
2023-02-19T07:42:30.764Z,19.20
2023-02-19T07:45:00.248Z,28.40
2023-02-19T07:47:27.229Z,17.90
2023-02-19T07:49:53.764Z,19.60
2023-02-19T07:52:20.269Z,18.10
2023-02-19T07:54:46.856Z,20.00
2023-02-19T07:57:13.492Z,18.80
2023-02-19T07:59:40.466Z,21.40
2023-02-19T08:02:18.361Z,24.60
2023-02-19T08:04:47.334Z,25.60
2023-02-19T08:07:13.779Z,26.20
2023-02-19T08:09:40.332Z,35.70
2023-02-19T08:12:06.978Z,33.90
2023-02-19T08:14:33.585Z,30.30
2023-02-19T08:17:00.314Z,35.70
2023-02-19T08:19:26.851Z,31.70
2023-02-19T08:21:53.333Z,24.80
2023-02-19T08:24:19.843Z,26.10
2023-02-19T08:26:46.331Z,24.40
2023-02-19T08:29:12.930Z,25.30
2023-02-19T08:31:39.611Z,43.20
2023-02-19T08:34:06.321Z,41.60
2023-02-19T08:36:32.905Z,45.50
2023-02-19T08:38:59.429Z,38.30
2023-02-19T08:41:25.964Z,34.40
2023-02-19T08:43:52.407Z,30.40
2023-02-19T08:46:19.008Z,29.80
2023-02-19T08:48:45.801Z,29.20
2023-02-19T08:51:12.658Z,51.50
2023-02-19T08:53:40.860Z,25.80
2023-02-19T08:56:13.115Z,26.90
2023-02-19T08:58:40.591Z,23.40
2023-02-19T09:01:12.588Z,24.30
2023-02-19T09:03:39.905Z,29.30
2023-02-19T09:06:06.802Z,29.10
2023-02-19T09:08:33.290Z,25.90
2023-02-19T09:11:02.500Z,27.20
2023-02-19T09:13:29.210Z,27.60
2023-02-19T09:15:56.385Z,29.80
2023-02-19T09:18:24.456Z,25.80
2023-02-19T09:20:50.949Z,23.20
2023-02-19T09:23:17.452Z,23.70
2023-02-19T09:25:44.101Z,25.10
2023-02-19T09:28:10.615Z,21.00
2023-02-19T09:30:37.313Z,20.90
2023-02-19T09:33:05.541Z,22.30
2023-02-19T09:35:32.096Z,17.70
2023-02-19T09:38:00.884Z,17.30
2023-02-19T09:40:27.742Z,18.90
2023-02-19T09:42:54.295Z,11.10
2023-02-19T09:45:24.918Z,10.30
2023-02-19T09:47:57.445Z,7.50
2023-02-19T09:50:36.319Z,5.90
2023-02-19T09:53:11.721Z,6.30
2023-02-19T09:55:43.501Z,7.00
2023-02-19T09:58:27.423Z,6.00
2023-02-19T10:00:56.618Z,6.70
2023-02-19T10:03:27.358Z,6.80
2023-02-19T10:05:54.368Z,7.20
2023-02-19T10:08:21.321Z,5.50
2023-02-19T10:10:48.056Z,7.80
2023-02-19T10:13:25.782Z,7.40
2023-02-19T10:15:56.657Z,8.70
2023-02-19T10:18:26.746Z,7.30
2023-02-19T10:20:53.587Z,5.90
2023-02-19T10:23:20.608Z,5.00
2023-02-19T10:25:57.947Z,6.00
2023-02-19T10:28:31.194Z,6.00
2023-02-19T10:31:00.399Z,7.20
2023-02-19T10:33:27.301Z,8.80
2023-02-19T10:35:59.390Z,9.00
2023-02-19T10:38:35.330Z,8.60
2023-02-19T10:41:14.690Z,8.50
2023-02-19T10:43:51.050Z,9.70
2023-02-19T10:46:33.331Z,10.10
2023-02-19T10:49:03.921Z,9.40
2023-02-19T10:51:37.214Z,10.70
2023-02-19T10:54:07.526Z,12.70
2023-02-19T10:56:34.145Z,12.80
2023-02-19T10:59:28.267Z,15.40
2023-02-19T11:02:02.622Z,12.80
2023-02-19T11:04:32.214Z,13.30
2023-02-19T11:06:58.686Z,5.50
2023-02-19T11:09:39.313Z,6.80
2023-02-19T11:12:09.220Z,6.50
2023-02-19T11:14:36.577Z,7.50
2023-02-19T11:17:05.482Z,7.90
2023-02-19T11:19:44.405Z,7.70
2023-02-19T11:22:26.527Z,7.80
2023-02-19T11:24:57.304Z,7.30
2023-02-19T11:27:25.337Z,6.50
2023-02-19T11:29:51.980Z,7.40
2023-02-19T11:32:27.953Z,6.90
2023-02-19T11:35:14.510Z,11.10
2023-02-19T11:38:01.783Z,13.00
2023-02-19T11:40:59.253Z,10.90
2023-02-19T11:43:41.061Z,9.50
2023-02-19T11:46:51.105Z,10.50
2023-02-19T11:49:52.992Z,8.40
2023-02-19T11:52:35.505Z,10.10
2023-02-19T11:55:07.992Z,6.30
2023-02-19T11:57:47.980Z,5.60
2023-02-19T12:00:32.610Z,4.60
2023-02-19T12:03:20.957Z,6.40
2023-02-19T12:06:09.051Z,6.00
2023-02-19T12:08:41.769Z,5.00
2023-02-19T12:11:20.432Z,4.50
2023-02-19T12:14:00.422Z,6.00
2023-02-19T12:16:38.505Z,6.40
2023-02-19T12:19:33.865Z,7.70
2023-02-19T12:22:16.339Z,8.50
2023-02-19T12:24:58.416Z,9.80
2023-02-19T12:27:41.654Z,5.00
2023-02-19T12:30:35.982Z,6.60
2023-02-19T12:33:11.673Z,7.80
2023-02-19T12:35:47.151Z,6.10
2023-02-19T12:38:43.263Z,6.60
2023-02-19T12:41:12.699Z,7.50
2023-02-19T12:43:46.189Z,5.50
2023-02-19T12:46:19.023Z,10.60
2023-02-19T12:49:12.497Z,10.70
2023-02-19T12:52:13.066Z,9.10
2023-02-19T12:54:43.475Z,7.80
2023-02-19T12:57:18.377Z,7.30
2023-02-19T13:00:00.373Z,7.80
2023-02-19T13:02:54.451Z,7.80
2023-02-19T13:05:21.012Z,6.90
2023-02-19T13:08:04.050Z,12.40
2023-02-19T13:10:43.173Z,22.80
2023-02-19T13:13:19.048Z,28.10
2023-02-19T13:15:50.280Z,24.80
2023-02-19T13:18:24.116Z,17.80
2023-02-19T13:20:52.258Z,7.60
2023-02-19T13:23:21.871Z,14.90
2023-02-19T13:26:15.512Z,5.30
2023-02-19T13:28:58.682Z,6.60
2023-02-19T13:32:07.187Z,7.70
2023-02-19T13:35:01.927Z,7.40
2023-02-19T13:37:33.247Z,8.80
2023-02-19T13:40:04.905Z,8.00
2023-02-19T13:42:34.021Z,7.80
2023-02-19T13:45:03.430Z,8.80
2023-02-19T13:47:56.171Z,11.10
2023-02-19T13:50:28.580Z,12.60
2023-02-19T13:52:56.956Z,8.80
2023-02-19T13:55:41.724Z,10.40
2023-02-19T13:58:33.533Z,10.60
2023-02-19T14:01:11.388Z,10.60
2023-02-19T14:04:06.893Z,11.40
2023-02-19T14:07:05.300Z,12.00
2023-02-19T14:09:34.899Z,13.90
2023-02-19T14:12:03.374Z,13.30
2023-02-19T14:14:38.928Z,15.90
2023-02-19T14:17:45.743Z,12.70
2023-02-19T14:20:15.189Z,10.90
2023-02-19T14:22:44.844Z,9.30
2023-02-19T14:25:35.539Z,8.70
2023-02-19T14:28:11.194Z,7.20
2023-02-19T14:31:11.364Z,7.60
2023-02-19T14:33:43.996Z,7.80
2023-02-19T14:36:35.242Z,7.30
2023-02-19T14:39:13.861Z,7.70
2023-02-19T14:41:45.165Z,10.10
2023-02-19T14:44:18.940Z,11.00
2023-02-19T14:47:00.005Z,11.00
2023-02-19T14:49:39.343Z,12.10
2023-02-19T14:52:14.792Z,12.50
2023-02-19T14:54:58.537Z,9.50
2023-02-19T14:57:35.851Z,19.40
2023-02-19T15:00:21.834Z,11.90
2023-02-19T15:02:51.235Z,19.40
2023-02-19T15:05:23.627Z,14.90
2023-02-19T15:07:51.509Z,14.10
2023-02-19T15:10:18.445Z,13.30
2023-02-19T15:12:51.126Z,14.20
2023-02-19T15:15:31.183Z,14.70
2023-02-19T15:18:00.856Z,13.40
2023-02-19T15:20:30.953Z,14.10
2023-02-19T15:22:59.506Z,15.30
2023-02-19T15:25:37.964Z,16.50
2023-02-19T15:28:32.138Z,19.20
2023-02-19T15:30:58.593Z,12.70
2023-02-19T15:33:27.653Z,15.20
2023-02-19T15:35:58.199Z,18.60
2023-02-19T15:38:25.447Z,16.90
2023-02-19T15:40:53.232Z,17.90
2023-02-19T15:43:26.123Z,23.80
2023-02-19T15:45:58.305Z,23.50
2023-02-19T15:48:37.075Z,33.50
2023-02-19T15:51:11.141Z,30.80
2023-02-19T15:53:46.286Z,31.00
2023-02-19T15:56:22.643Z,25.10
2023-02-19T15:58:59.268Z,24.40
2023-02-19T16:01:28.550Z,21.40
2023-02-19T16:03:56.102Z,15.90
2023-02-19T16:06:25.230Z,31.20
2023-02-19T16:08:55.142Z,22.30
2023-02-19T16:11:29.447Z,13.50
2023-02-19T16:14:27.115Z,12.80
2023-02-19T16:16:58.955Z,12.00
2023-02-19T16:19:31.985Z,19.00
2023-02-19T16:21:59.642Z,16.60
2023-02-19T16:24:34.170Z,16.80
2023-02-19T16:27:01.358Z,22.50
2023-02-19T16:29:31.592Z,15.60
2023-02-19T16:32:01.559Z,19.10
2023-02-19T16:34:32.421Z,16.20
2023-02-19T16:36:59.165Z,13.50
2023-02-19T16:39:25.721Z,17.90
2023-02-19T16:42:11.791Z,16.40
2023-02-19T16:44:38.554Z,19.20
2023-02-19T16:47:07.778Z,17.60
2023-02-19T16:49:34.401Z,18.70
2023-02-19T16:52:04.542Z,17.30
2023-02-19T16:54:31.628Z,16.10
2023-02-19T16:56:58.229Z,15.70
2023-02-19T16:59:24.760Z,18.30
2023-02-19T17:01:51.508Z,17.30
2023-02-19T17:04:17.936Z,16.40
2023-02-19T17:06:44.898Z,12.90
2023-02-19T17:09:11.646Z,14.00
2023-02-19T17:11:38.293Z,15.00
2023-02-19T17:14:04.729Z,17.30
2023-02-19T17:16:33.388Z,19.00
2023-02-19T17:18:59.882Z,22.40
2023-02-19T17:21:28.876Z,20.50
2023-02-19T17:23:56.515Z,15.80
2023-02-19T17:26:28.917Z,22.50
2023-02-19T17:28:59.984Z,20.50
2023-02-19T17:31:26.960Z,21.40
2023-02-19T17:33:54.144Z,25.20
2023-02-19T17:36:24.293Z,18.90
2023-02-19T17:38:50.918Z,16.10
2023-02-19T17:41:17.664Z,13.30
2023-02-19T17:43:44.398Z,14.00
2023-02-19T17:46:15.524Z,13.80
2023-02-19T17:48:42.093Z,15.20
2023-02-19T17:51:08.977Z,13.80
2023-02-19T17:53:36.209Z,10.10
2023-02-19T17:56:02.789Z,11.70
2023-02-19T17:58:29.481Z,12.80
2023-02-19T18:00:55.979Z,12.30
2023-02-19T18:03:22.548Z,19.30
2023-02-19T18:05:48.976Z,16.70
2023-02-19T18:08:16.049Z,15.80
2023-02-19T18:10:42.809Z,15.50
2023-02-19T18:13:09.283Z,14.90
2023-02-19T18:15:36.300Z,12.80
2023-02-19T18:18:03.135Z,13.30
2023-02-19T18:20:29.996Z,16.90
2023-02-19T18:22:57.341Z,13.40
2023-02-19T18:25:24.196Z,12.80
2023-02-19T18:27:50.963Z,15.70
2023-02-19T18:30:20.157Z,10.70
2023-02-19T18:32:47.505Z,20.90
2023-02-19T18:35:15.175Z,13.50
2023-02-19T18:37:42.122Z,18.80
2023-02-19T18:40:09.323Z,14.70
2023-02-19T18:42:35.920Z,16.20
2023-02-19T18:45:02.782Z,24.70
2023-02-19T18:47:29.417Z,19.20
2023-02-19T18:49:57.708Z,20.00
2023-02-19T18:52:26.019Z,16.00
2023-02-19T18:54:54.004Z,23.10
2023-02-19T18:57:22.954Z,24.70
2023-02-19T18:59:49.825Z,22.80
2023-02-19T19:02:21.154Z,24.60
2023-02-19T19:04:52.721Z,23.40
2023-02-19T19:07:20.639Z,24.00
2023-02-19T19:09:47.604Z,22.40
2023-02-19T19:12:15.331Z,19.50
2023-02-19T19:14:42.464Z,16.80
2023-02-19T19:17:09.012Z,18.80
2023-02-19T19:19:35.732Z,20.00
2023-02-19T19:22:02.270Z,22.70
2023-02-19T19:24:28.825Z,21.60
2023-02-19T19:26:55.449Z,18.70
2023-02-19T19:29:22.529Z,15.30
2023-02-19T19:31:49.751Z,19.70
2023-02-19T19:34:16.485Z,17.10
2023-02-19T19:36:43.681Z,19.70
2023-02-19T19:39:10.526Z,15.00
2023-02-19T19:41:37.029Z,17.80
2023-02-19T19:44:08.376Z,14.70
2023-02-19T19:46:35.964Z,18.50
2023-02-19T19:49:02.665Z,21.20
2023-02-19T19:51:33.848Z,17.60
2023-02-19T19:54:00.823Z,15.80
2023-02-19T19:56:27.257Z,19.30
2023-02-19T19:58:54.107Z,18.20
2023-02-19T20:01:21.611Z,18.40
2023-02-19T20:03:48.413Z,15.60
2023-02-19T20:06:15.268Z,15.90
2023-02-19T20:08:41.766Z,17.80
2023-02-19T20:11:08.812Z,11.90
2023-02-19T20:13:35.501Z,16.70
2023-02-19T20:16:02.016Z,15.50
2023-02-19T20:18:28.680Z,19.10
2023-02-19T20:20:55.378Z,13.70
2023-02-19T20:23:22.174Z,15.60
2023-02-19T20:25:49.228Z,16.30
2023-02-19T20:28:18.785Z,17.70
2023-02-19T20:30:45.305Z,18.10
2023-02-19T20:33:12.366Z,17.20
2023-02-19T20:35:38.958Z,16.30
2023-02-19T20:38:05.387Z,16.40
2023-02-19T20:40:32.143Z,14.40
2023-02-19T20:42:58.901Z,14.80
2023-02-19T20:45:25.361Z,15.20
2023-02-19T20:47:52.003Z,11.50
2023-02-19T20:50:19.132Z,13.70
2023-02-19T20:52:46.512Z,14.80
2023-02-19T20:55:13.028Z,17.10
2023-02-19T20:57:39.803Z,14.80
2023-02-19T21:00:08.384Z,19.80
2023-02-19T21:02:35.173Z,21.50
2023-02-19T21:05:01.824Z,18.50
2023-02-19T21:07:28.618Z,19.50
2023-02-19T21:09:55.166Z,17.80
2023-02-19T21:12:22.408Z,16.70
2023-02-19T21:14:49.047Z,15.00
2023-02-19T21:17:15.721Z,12.30
2023-02-19T21:19:42.186Z,16.10
2023-02-19T21:22:08.769Z,16.60
2023-02-19T21:24:35.186Z,15.60
2023-02-19T21:27:01.708Z,17.40
2023-02-19T21:29:28.501Z,13.00
2023-02-19T21:31:57.133Z,15.40
2023-02-19T21:34:29.081Z,18.80
2023-02-19T21:36:56.613Z,23.10
2023-02-19T21:39:26.706Z,19.80
2023-02-19T21:41:53.694Z,18.60
2023-02-19T21:44:20.668Z,15.90
2023-02-19T21:46:47.899Z,17.40
2023-02-19T21:49:14.571Z,16.70
2023-02-19T21:51:43.241Z,16.70
2023-02-19T21:54:15.980Z,17.10
2023-02-19T21:56:42.801Z,17.40
2023-02-19T21:59:09.335Z,12.60
2023-02-19T22:01:37.745Z,16.30
2023-02-19T22:04:05.969Z,15.40
2023-02-19T22:06:33.000Z,14.70
2023-02-19T22:09:00.021Z,10.90
2023-02-19T22:11:26.826Z,15.70
2023-02-19T22:13:53.986Z,16.20
2023-02-19T22:16:21.187Z,16.90
2023-02-19T22:18:53.731Z,16.20
2023-02-19T22:21:21.652Z,12.00
2023-02-19T22:23:50.198Z,18.20
2023-02-19T22:26:29.225Z,16.70
2023-02-19T22:28:56.274Z,15.70
2023-02-19T22:31:24.904Z,19.70
2023-02-19T22:33:52.416Z,18.30
2023-02-19T22:36:24.384Z,15.30
2023-02-19T22:38:50.912Z,16.80
2023-02-19T22:41:19.098Z,15.90
2023-02-19T22:43:46.162Z,13.60
2023-02-19T22:46:24.927Z,12.30
2023-02-19T22:48:51.743Z,10.00
2023-02-19T22:51:21.290Z,16.60
2023-02-19T22:53:50.160Z,16.60
2023-02-19T22:56:18.315Z,15.00
2023-02-19T22:58:45.468Z,13.70
2023-02-19T23:01:16.169Z,13.20
2023-02-19T23:03:49.871Z,12.50
2023-02-19T23:06:27.957Z,14.80
2023-02-19T23:08:56.782Z,14.40
2023-02-19T23:11:28.993Z,12.20
2023-02-19T23:13:57.062Z,15.30
2023-02-19T23:16:23.816Z,17.10
2023-02-19T23:18:51.104Z,9.60
2023-02-19T23:21:19.201Z,12.10
2023-02-19T23:23:46.630Z,15.60
2023-02-19T23:26:14.793Z,11.00
2023-02-19T23:28:45.419Z,11.70
2023-02-19T23:31:13.323Z,13.90
2023-02-19T23:33:40.421Z,12.60
2023-02-19T23:36:08.085Z,18.20
2023-02-19T23:38:35.284Z,14.00
2023-02-19T23:41:02.336Z,13.90
2023-02-19T23:43:29.486Z,13.60
2023-02-19T23:45:56.070Z,16.30
2023-02-19T23:48:22.773Z,14.00
2023-02-19T23:50:49.309Z,16.70
2023-02-19T23:53:15.877Z,17.30
2023-02-19T23:55:42.605Z,15.90
2023-02-19T23:58:09.147Z,14.30
